Overview Statistics Trail Chart Weather Telemetry Raw packets
 

This is the latest recevied weather packets stored in our database for station/object WX0ABE-13. If no packets are shown the sender has not sent any weather packets the latest 10 day(s).

<< 109 110 111 112 113 114 >>
Time Temp. Humidity Pressure Rain* Wind** Luminosity Snow
1787543289 25.56° C 50% 1017.4 hPa 0 mm - 0 W/m² -
1787542985 25.56° C 50% 1017.4 hPa 0 mm - 0 W/m² -
1787542683 25.56° C 51% 1017.5 hPa 0 mm - 0 W/m² -
1787542380 25.56° C 52% 1017.5 hPa 0 mm - 0 W/m² -
1787542197 25.56° C 52% 1017.5 hPa 0 mm - 0 W/m² -
1787541772 25.56° C 52% 1017.8 hPa 0 mm - 0 W/m² -
1787541468 25° C 53% 1018.2 hPa 0 mm - 0 W/m² -
1787541165 25° C 58% 1018.3 hPa 0 mm - 0 W/m² -
1787540861 25° C 57% 1018 hPa 0 mm - 0 W/m² -
1787540557 25° C 57% 1017.8 hPa 0 mm - 0 W/m² -
1787540254 25° C 56% 1017.6 hPa 0 mm - 0 W/m² -
1787539951 25.56° C 55% 1017.6 hPa 0 mm - 0 W/m² -
1787539646 26.11° C 51% 1017.2 hPa 0 mm - 0 W/m² -
1787539344 27.22° C 49% 1016.8 hPa 0 mm - 0 W/m² -
1787539041 27.78° C 48% 1017 hPa 0 mm - 0 W/m² -
1787538738 28.89° C 45% 1016.6 hPa 0 mm - 0 W/m² -
1787538434 28.89° C 48% 1016.4 hPa 0 mm - 0 W/m² -
1787538129 29.44° C 55% 1016.1 hPa 0 mm - 0 W/m² -
1787537824 29.44° C 53% 1016.2 hPa 0 mm - 0 W/m² -
1787537521 30° C 51% 1016.2 hPa 0 mm - 0 W/m² -
1787537217 30° C 50% 1015.8 hPa 0 mm - 0 W/m² -
1787536962 30° C 50% 1015.7 hPa 0 mm - 0 W/m² -
1787536610 30° C 50% 1015.7 hPa 0 mm - 0 W/m² -
1787536307 30° C 49% 1015.5 hPa 0 mm - 0 W/m² -
1787536003 30° C 49% 1015.6 hPa 0 mm - 1 W/m² -

* Rain latest hour (hover to see other rain measurements)
** Current wind speed in m/s (hover to see current wind gust speed)